createdAt,value
2022-08-07T00:02:36.475Z,0.35
2022-08-07T00:07:20.812Z,0.20
2022-08-07T00:12:22.716Z,0.00
2022-08-07T00:17:30.046Z,0.30
2022-08-07T00:27:52.533Z,0.20
2022-08-07T00:32:57.381Z,0.10
2022-08-07T00:38:01.136Z,0.08
2022-08-07T00:43:02.845Z,0.08
2022-08-07T00:48:09.740Z,0.32
2022-08-07T00:53:13.069Z,0.00
2022-08-07T00:58:14.683Z,0.20
2022-08-07T01:03:17.077Z,0.70
2022-08-07T01:08:18.934Z,0.82
2022-08-07T01:13:21.917Z,0.30
2022-08-07T01:18:25.009Z,0.03
2022-08-07T01:23:38.549Z,0.10
2022-08-07T01:28:45.738Z,0.45
2022-08-07T01:33:55.700Z,0.00
2022-08-07T01:39:09.477Z,0.30
2022-08-07T01:44:13.273Z,0.20
2022-08-07T01:49:16.488Z,0.00
2022-08-07T01:54:33.225Z,0.28
2022-08-07T01:59:50.501Z,0.20
2022-08-07T02:05:04.674Z,0.45
2022-08-07T02:10:14.328Z,0.45
2022-08-07T02:15:28.035Z,0.17
2022-08-07T02:20:32.097Z,0.65
2022-08-07T02:26:31.668Z,0.63
2022-08-07T02:31:18.685Z,0.10
2022-08-07T02:36:30.777Z,0.55
2022-08-07T02:41:39.814Z,0.10
2022-08-07T02:46:53.814Z,0.47
2022-08-07T02:59:03.205Z,0.20
2022-08-07T03:04:12.497Z,0.15
2022-08-07T03:09:43.809Z,0.00
2022-08-07T03:14:42.880Z,0.13
2022-08-07T03:19:55.083Z,0.20
2022-08-07T03:25:00.342Z,0.20
2022-08-07T03:30:06.013Z,0.10
2022-08-07T03:35:18.527Z,0.10
2022-08-07T03:40:30.898Z,0.20
2022-08-07T03:45:39.679Z,0.60
2022-08-07T03:50:55.692Z,0.10
2022-08-07T03:56:04.450Z,0.10
2022-08-07T04:01:11.669Z,0.52
2022-08-07T04:06:36.206Z,0.20
2022-08-07T04:12:24.514Z,0.60
2022-08-07T04:17:03.230Z,0.38
2022-08-07T04:22:14.446Z,0.13
2022-08-07T04:27:25.346Z,0.30
2022-08-07T04:32:34.708Z,0.40
2022-08-07T04:37:52.902Z,0.47
2022-08-07T04:43:03.610Z,0.35
2022-08-07T04:48:38.087Z,0.20
2022-08-07T04:54:05.474Z,0.10
2022-08-07T05:00:11.889Z,0.32
2022-08-07T05:05:03.274Z,0.40
2022-08-07T05:10:21.871Z,0.40
2022-08-07T05:15:36.298Z,0.38
2022-08-07T05:20:46.550Z,0.32
2022-08-07T05:26:10.612Z,0.52
2022-08-07T05:31:16.774Z,0.13
2022-08-07T05:36:30.192Z,0.57
2022-08-07T05:42:01.735Z,0.60
2022-08-07T05:46:55.320Z,0.70
2022-08-07T05:52:00.048Z,1.27
2022-08-07T05:57:06.851Z,1.00
2022-08-07T06:02:22.529Z,0.40
2022-08-07T06:08:05.454Z,0.70
2022-08-07T06:12:57.795Z,1.00
2022-08-07T06:17:59.843Z,0.85
2022-08-07T06:23:46.421Z,1.40
2022-08-07T06:28:32.777Z,1.10
2022-08-07T06:33:36.201Z,1.33
2022-08-07T06:38:38.211Z,0.50
2022-08-07T06:43:46.096Z,0.60
2022-08-07T06:48:52.661Z,0.80
2022-08-07T06:55:29.353Z,0.82
2022-08-07T07:00:12.200Z,0.98
2022-08-07T07:04:56.947Z,1.17
2022-08-07T07:09:59.061Z,0.50
2022-08-07T07:22:11.441Z,0.68
2022-08-07T07:27:21.328Z,0.65
2022-08-07T07:32:24.854Z,1.00
2022-08-07T07:37:44.470Z,0.35
2022-08-07T07:42:55.665Z,0.70
2022-08-07T07:47:59.775Z,0.40
2022-08-07T07:53:03.075Z,0.68
2022-08-07T07:58:06.177Z,0.35
2022-08-07T08:03:16.853Z,0.28
2022-08-07T08:08:39.419Z,0.40
2022-08-07T08:13:53.867Z,0.50
2022-08-07T08:19:00.390Z,0.17
2022-08-07T08:24:44.855Z,0.10
2022-08-07T08:29:56.230Z,0.32
2022-08-07T08:34:59.868Z,0.08
2022-08-07T08:40:03.093Z,0.25
2022-08-07T08:45:17.001Z,0.47
2022-08-07T08:50:35.007Z,0.55
2022-08-07T08:55:58.518Z,0.20
2022-08-07T09:01:40.053Z,0.08
2022-08-07T09:06:47.833Z,0.00
2022-08-07T09:12:02.826Z,0.13
2022-08-07T09:17:33.934Z,0.00
2022-08-07T09:24:32.197Z,0.10
2022-08-07T09:30:04.644Z,0.10
2022-08-07T09:34:22.691Z,0.75
2022-08-07T09:39:57.951Z,0.00
2022-08-07T09:47:25.883Z,0.00
2022-08-07T09:50:54.869Z,0.00
2022-08-07T09:56:47.847Z,0.70
2022-08-07T10:02:11.288Z,0.45
2022-08-07T10:07:53.411Z,0.25
2022-08-07T10:12:59.421Z,0.10
2022-08-07T10:18:08.846Z,0.00
2022-08-07T10:24:04.877Z,0.00
2022-08-07T10:29:12.393Z,0.10
2022-08-07T10:34:59.024Z,0.30
2022-08-07T10:40:21.832Z,0.08
2022-08-07T10:45:44.362Z,0.30
2022-08-07T10:50:54.886Z,0.20
2022-08-07T10:56:44.184Z,0.10
2022-08-07T11:02:04.775Z,0.30
2022-08-07T11:07:59.629Z,0.00
2022-08-07T11:13:01.917Z,0.35
2022-08-07T11:18:15.865Z,0.00
2022-08-07T11:23:30.627Z,0.03
2022-08-07T11:28:53.516Z,0.10
2022-08-07T11:34:10.237Z,0.20
2022-08-07T11:46:43.762Z,0.00
2022-08-07T11:52:05.723Z,0.20
2022-08-07T11:57:59.575Z,0.43
2022-08-07T12:03:04.947Z,0.40
2022-08-07T12:08:59.240Z,0.20
2022-08-07T12:14:29.894Z,0.10
2022-08-07T12:20:02.544Z,0.22
2022-08-07T12:26:05.612Z,0.20
2022-08-07T12:31:52.350Z,0.40
2022-08-07T12:36:53.534Z,0.00
2022-08-07T12:41:56.816Z,0.30
2022-08-07T12:47:09.778Z,0.00
2022-08-07T12:52:19.225Z,0.40
2022-08-07T12:57:38.890Z,0.15
2022-08-07T13:10:20.665Z,0.20
2022-08-07T13:15:31.885Z,0.03
2022-08-07T13:20:34.125Z,0.15
2022-08-07T13:25:50.703Z,0.10
2022-08-07T13:31:13.134Z,0.00
2022-08-07T13:37:20.770Z,0.13
2022-08-07T13:42:25.910Z,0.10
2022-08-07T13:48:06.923Z,0.15
2022-08-07T13:52:55.059Z,0.00
2022-08-07T13:58:31.432Z,0.00
2022-08-07T14:04:06.872Z,0.00
2022-08-07T14:09:04.790Z,0.00
2022-08-07T14:14:12.188Z,0.10
2022-08-07T14:20:40.914Z,0.10
2022-08-07T14:24:45.676Z,0.00
2022-08-07T14:30:05.462Z,0.03
2022-08-07T14:35:45.327Z,0.00
2022-08-07T14:40:49.562Z,0.00
2022-08-07T14:45:58.059Z,0.00
2022-08-07T14:51:04.584Z,0.00
2022-08-07T14:56:08.857Z,0.10
2022-08-07T15:06:40.529Z,0.03
2022-08-07T15:12:01.464Z,0.10
2022-08-07T15:17:13.488Z,0.45
2022-08-07T15:22:31.216Z,0.10
2022-08-07T15:28:04.092Z,0.00
2022-08-07T15:44:30.215Z,0.13
2022-08-07T15:50:05.091Z,0.55
2022-08-07T15:55:02.350Z,0.00
2022-08-07T16:00:06.362Z,0.15
2022-08-07T16:05:15.178Z,0.22
2022-08-07T16:15:55.482Z,0.10
2022-08-07T16:22:03.174Z,0.00
2022-08-07T16:26:59.339Z,0.00
2022-08-07T16:32:06.579Z,0.10
2022-08-07T16:38:02.763Z,0.32
2022-08-07T16:44:03.861Z,0.10
2022-08-07T16:50:27.190Z,0.00
2022-08-07T16:55:23.000Z,0.00
2022-08-07T17:01:07.946Z,0.05
2022-08-07T17:06:29.269Z,0.20
2022-08-07T17:12:05.017Z,0.20
2022-08-07T17:17:44.016Z,0.10
2022-08-07T17:23:01.543Z,0.00
2022-08-07T17:28:13.638Z,0.40
2022-08-07T17:34:09.732Z,0.00
2022-08-07T17:39:10.051Z,0.10
2022-08-07T17:44:43.962Z,0.05
2022-08-07T17:50:03.296Z,0.20
2022-08-07T17:55:12.672Z,0.40
2022-08-07T18:00:32.974Z,0.10
2022-08-07T18:06:06.654Z,0.10
2022-08-07T18:12:11.804Z,0.10
2022-08-07T18:17:05.383Z,0.10
2022-08-07T18:22:26.273Z,0.10
2022-08-07T18:27:46.232Z,0.00
2022-08-07T18:33:27.822Z,0.00
2022-08-07T18:38:58.640Z,0.00
2022-08-07T18:44:26.889Z,0.20
2022-08-07T18:50:32.559Z,0.03
2022-08-07T18:55:57.477Z,0.00
2022-08-07T19:02:18.325Z,0.00
2022-08-07T19:07:04.199Z,0.05
2022-08-07T19:12:53.451Z,0.10
2022-08-07T19:18:11.710Z,0.00
2022-08-07T19:23:56.928Z,0.22
2022-08-07T19:30:53.495Z,0.10
2022-08-07T19:34:33.820Z,0.10
2022-08-07T19:39:56.877Z,0.00
2022-08-07T19:45:08.505Z,0.00
2022-08-07T19:50:43.149Z,0.10
2022-08-07T19:55:56.353Z,0.40
2022-08-07T20:00:57.319Z,0.28
2022-08-07T20:06:03.107Z,0.03
2022-08-07T20:11:12.247Z,0.00
2022-08-07T20:16:32.324Z,0.00
2022-08-07T20:21:48.135Z,0.00
2022-08-07T20:26:54.542Z,0.00
2022-08-07T20:31:59.779Z,0.00
2022-08-07T20:37:05.606Z,0.47
2022-08-07T20:42:11.300Z,0.10
2022-08-07T20:47:17.904Z,0.03
2022-08-07T20:52:51.847Z,0.00
2022-08-07T20:58:02.437Z,0.25
2022-08-07T21:04:21.881Z,0.03
2022-08-07T21:09:52.470Z,0.03
2022-08-07T21:15:05.390Z,0.00
2022-08-07T21:20:26.683Z,0.20
2022-08-07T21:26:03.195Z,0.10
2022-08-07T21:31:14.349Z,0.00
2022-08-07T21:36:50.337Z,0.10
2022-08-07T21:42:46.813Z,0.10
2022-08-07T21:48:03.331Z,0.30
2022-08-07T21:53:31.607Z,0.28
2022-08-07T21:59:03.268Z,0.05
2022-08-07T22:04:12.834Z,0.20
2022-08-07T22:09:25.405Z,0.25
2022-08-07T22:14:37.579Z,0.20
2022-08-07T22:20:23.559Z,0.10
2022-08-07T22:25:56.957Z,0.22
2022-08-07T22:31:05.573Z,0.20
2022-08-07T22:36:29.282Z,0.13
2022-08-07T22:42:03.302Z,0.20
2022-08-07T22:47:23.256Z,0.05
2022-08-07T22:52:48.000Z,0.10
2022-08-07T22:58:10.576Z,0.10
2022-08-07T23:03:58.278Z,0.28
2022-08-07T23:10:06.383Z,0.40
2022-08-07T23:15:04.659Z,0.10
2022-08-07T23:20:58.676Z,0.10
2022-08-07T23:26:25.159Z,0.03
2022-08-07T23:34:19.765Z,0.00
2022-08-07T23:37:35.472Z,0.13
2022-08-07T23:43:07.780Z,0.17
2022-08-07T23:48:32.929Z,0.10
2022-08-07T23:53:51.061Z,0.00
2022-08-07T23:58:59.310Z,0.32
